createdAt,value
2022-10-14T00:01:46.780Z,9.06
2022-10-14T00:04:13.586Z,9.06
2022-10-14T00:06:40.176Z,9.06
2022-10-14T00:09:08.724Z,9.07
2022-10-14T00:11:36.687Z,9.07
2022-10-14T00:14:10.431Z,9.08
2022-10-14T00:16:38.324Z,9.08
2022-10-14T00:19:05.348Z,9.08
2022-10-14T00:21:32.312Z,9.08
2022-10-14T00:23:59.043Z,9.08
2022-10-14T00:26:27.722Z,9.06
2022-10-14T00:28:54.690Z,9.05
2022-10-14T00:31:21.736Z,9.04
2022-10-14T00:33:49.156Z,9.03
2022-10-14T00:36:16.646Z,9.02
2022-10-14T00:38:45.284Z,9.01
2022-10-14T00:41:14.912Z,9.01
2022-10-14T00:44:15.197Z,9.01
2022-10-14T00:46:42.759Z,9.01
2022-10-14T00:49:15.229Z,9.02
2022-10-14T00:51:44.110Z,9.02
2022-10-14T00:54:11.792Z,9.00
2022-10-14T00:56:38.472Z,9.03
2022-10-14T00:59:07.706Z,9.02
2022-10-14T01:01:34.444Z,9.02
2022-10-14T01:04:01.116Z,9.02
2022-10-14T01:06:31.797Z,9.04
2022-10-14T01:09:06.222Z,9.03
2022-10-14T01:11:38.652Z,9.02
2022-10-14T01:14:20.476Z,9.00
2022-10-14T01:16:59.531Z,8.99
2022-10-14T01:19:56.936Z,8.98
2022-10-14T01:22:47.658Z,8.97
2022-10-14T01:25:59.304Z,8.95
2022-10-14T01:29:07.868Z,8.93
2022-10-14T01:31:35.800Z,8.89
2022-10-14T01:34:06.485Z,8.83
2022-10-14T01:36:36.082Z,8.79
2022-10-14T01:39:14.998Z,8.74
2022-10-14T01:41:45.442Z,8.70
2022-10-14T01:44:12.622Z,8.66
2022-10-14T01:46:40.828Z,8.64
2022-10-14T01:49:10.354Z,8.62
2022-10-14T01:51:39.840Z,8.60
2022-10-14T01:54:11.158Z,8.58
2022-10-14T01:56:40.596Z,8.56
2022-10-14T01:59:07.875Z,8.51
2022-10-14T02:01:36.313Z,8.46
2022-10-14T02:04:03.147Z,8.44
2022-10-14T02:06:31.264Z,8.41
2022-10-14T02:09:14.975Z,8.39
2022-10-14T02:11:58.122Z,8.36
2022-10-14T02:14:40.189Z,8.31
2022-10-14T02:17:34.570Z,8.28
2022-10-14T02:20:10.706Z,8.23
2022-10-14T02:22:41.051Z,8.18
2022-10-14T02:25:19.261Z,8.14
2022-10-14T02:27:46.240Z,8.11
2022-10-14T02:30:13.120Z,8.06
2022-10-14T02:32:39.823Z,8.02
2022-10-14T02:35:06.757Z,7.97
2022-10-14T02:37:33.432Z,7.92
2022-10-14T02:40:15.424Z,7.88
2022-10-14T02:42:42.176Z,7.85
2022-10-14T02:45:09.161Z,7.81
2022-10-14T02:47:35.914Z,7.75
2022-10-14T02:50:02.657Z,7.66
2022-10-14T02:52:29.816Z,7.58
2022-10-14T02:54:56.500Z,7.57
2022-10-14T02:57:23.259Z,7.54
2022-10-14T02:59:49.854Z,7.51
2022-10-14T03:02:17.077Z,7.50
2022-10-14T03:04:43.901Z,7.46
2022-10-14T03:07:10.668Z,7.43
2022-10-14T03:09:42.082Z,7.42
2022-10-14T03:12:09.091Z,7.40
2022-10-14T03:14:35.754Z,7.38
2022-10-14T03:17:02.817Z,7.35
2022-10-14T03:19:31.633Z,7.34
2022-10-14T03:21:58.367Z,7.34
2022-10-14T03:24:25.545Z,7.33
2022-10-14T03:27:09.642Z,7.33
2022-10-14T03:29:36.796Z,7.33
2022-10-14T03:32:11.967Z,7.33
2022-10-14T03:35:04.573Z,7.33
2022-10-14T03:37:31.868Z,7.32
2022-10-14T03:39:58.649Z,7.33
2022-10-14T03:42:25.417Z,7.33
2022-10-14T03:44:52.433Z,7.33
2022-10-14T03:47:25.985Z,7.31
2022-10-14T03:49:53.107Z,7.33
2022-10-14T03:52:27.230Z,7.34
2022-10-14T03:55:04.990Z,7.33
2022-10-14T03:57:31.909Z,7.35
2022-10-14T03:59:59.371Z,7.36
2022-10-14T04:02:40.665Z,7.38
2022-10-14T04:05:09.633Z,7.38
2022-10-14T04:07:36.722Z,7.38
2022-10-14T04:10:03.780Z,7.40
2022-10-14T04:12:30.806Z,7.41
2022-10-14T04:15:00.725Z,7.41
2022-10-14T04:17:31.689Z,7.40
2022-10-14T04:20:01.047Z,7.38
2022-10-14T04:22:27.761Z,7.37
2022-10-14T04:24:54.771Z,7.35
2022-10-14T04:27:21.500Z,7.33
2022-10-14T04:29:55.174Z,7.31
2022-10-14T04:32:26.396Z,7.29
2022-10-14T04:34:55.031Z,7.27
2022-10-14T04:37:23.958Z,7.29
2022-10-14T04:40:04.004Z,7.26
2022-10-14T04:42:31.186Z,7.28
2022-10-14T04:45:02.069Z,7.31
2022-10-14T04:47:49.121Z,7.33
2022-10-14T04:50:18.889Z,7.38
2022-10-14T04:53:06.876Z,7.40
2022-10-14T04:55:36.840Z,7.43
2022-10-14T04:58:03.660Z,7.44
2022-10-14T05:00:35.688Z,7.46
2022-10-14T05:03:10.774Z,7.48
2022-10-14T05:05:37.887Z,7.49
2022-10-14T05:08:05.445Z,7.51
2022-10-14T05:10:36.472Z,7.54
2022-10-14T05:13:04.197Z,7.56
2022-10-14T05:15:34.376Z,7.59
2022-10-14T05:18:57.241Z,7.65
2022-10-14T05:21:26.388Z,7.68
2022-10-14T05:23:58.448Z,7.73
2022-10-14T05:26:26.432Z,7.78
2022-10-14T05:28:53.952Z,7.83
2022-10-14T05:31:21.030Z,7.83
2022-10-14T05:33:58.025Z,7.89
2022-10-14T05:36:24.888Z,7.89
2022-10-14T05:38:51.632Z,7.97
2022-10-14T05:41:19.825Z,8.02
2022-10-14T05:43:46.561Z,8.06
2022-10-14T05:46:13.331Z,8.10
2022-10-14T05:48:41.352Z,8.14
2022-10-14T05:51:08.088Z,8.17
2022-10-14T05:53:37.425Z,8.26
2022-10-14T05:56:08.053Z,8.31
2022-10-14T05:58:36.805Z,8.38
2022-10-14T06:01:05.033Z,8.44
2022-10-14T06:03:32.194Z,8.50
2022-10-14T06:05:59.108Z,8.56
2022-10-14T06:08:25.936Z,8.61
2022-10-14T06:10:53.071Z,8.67
2022-10-14T06:13:20.218Z,8.72
2022-10-14T06:15:50.011Z,8.77
2022-10-14T06:18:19.262Z,8.83
2022-10-14T06:20:51.388Z,8.88
2022-10-14T06:23:18.554Z,8.93
2022-10-14T06:25:45.311Z,8.98
2022-10-14T06:28:11.995Z,9.02
2022-10-14T06:30:38.705Z,9.02
2022-10-14T06:33:05.423Z,9.04
2022-10-14T06:35:32.062Z,9.09
2022-10-14T06:37:58.821Z,9.12
2022-10-14T06:40:25.480Z,9.13
2022-10-14T06:42:53.673Z,9.13
2022-10-14T06:45:20.352Z,9.14
2022-10-14T06:47:47.242Z,9.16
2022-10-14T06:50:13.983Z,9.18
2022-10-14T06:52:40.691Z,9.22
2022-10-14T06:55:07.774Z,9.27
2022-10-14T06:57:34.580Z,9.31
2022-10-14T07:00:01.164Z,9.34
2022-10-14T07:02:27.903Z,9.39
2022-10-14T07:04:54.556Z,9.42
2022-10-14T07:07:21.383Z,9.47
2022-10-14T07:09:48.137Z,9.52
2022-10-14T07:12:15.149Z,9.58
2022-10-14T07:14:42.090Z,9.63
2022-10-14T07:17:09.015Z,9.69
2022-10-14T07:19:35.728Z,9.74
2022-10-14T07:22:02.470Z,9.80
2022-10-14T07:24:29.291Z,9.85
2022-10-14T07:26:56.016Z,9.85
2022-10-14T07:29:22.904Z,9.89
2022-10-14T07:31:49.683Z,9.92
2022-10-14T07:34:16.303Z,9.96
2022-10-14T07:36:43.055Z,10.01
2022-10-14T07:39:09.703Z,10.06
2022-10-14T07:41:36.676Z,10.11
2022-10-14T07:44:06.612Z,10.15
2022-10-14T07:46:34.037Z,10.17
2022-10-14T07:49:03.126Z,10.21
2022-10-14T07:51:29.848Z,10.26
2022-10-14T07:53:56.985Z,10.31
2022-10-14T07:56:23.746Z,10.37
2022-10-14T07:58:50.405Z,10.42
2022-10-14T08:01:18.824Z,10.47
2022-10-14T08:03:46.424Z,10.51
2022-10-14T08:06:13.314Z,10.56
2022-10-14T08:08:40.167Z,10.61
2022-10-14T08:11:09.552Z,10.66
2022-10-14T08:13:36.413Z,10.68
2022-10-14T08:16:03.158Z,10.76
2022-10-14T08:18:29.810Z,10.81
2022-10-14T08:20:56.514Z,10.86
2022-10-14T08:23:23.295Z,10.90
2022-10-14T08:25:50.647Z,10.97
2022-10-14T08:28:17.395Z,11.04
2022-10-14T08:30:44.052Z,11.07
2022-10-14T08:33:13.132Z,11.08
2022-10-14T08:35:40.192Z,11.10
2022-10-14T08:38:06.986Z,11.11
2022-10-14T08:40:54.824Z,11.13
2022-10-14T08:43:30.910Z,11.16
2022-10-14T08:46:02.266Z,11.17
2022-10-14T08:48:28.977Z,11.22
2022-10-14T08:51:09.706Z,11.24
2022-10-14T08:53:39.707Z,11.28
2022-10-14T08:56:06.944Z,11.32
2022-10-14T08:58:46.013Z,11.33
2022-10-14T09:01:26.918Z,11.37
2022-10-14T09:03:58.538Z,11.39
2022-10-14T09:06:26.771Z,11.42
2022-10-14T09:08:56.140Z,11.45
2022-10-14T09:11:24.203Z,11.48
2022-10-14T09:13:53.324Z,11.50
2022-10-14T09:16:21.579Z,11.52
2022-10-14T09:18:58.183Z,11.55
2022-10-14T09:24:27.361Z,11.60
2022-10-14T09:26:58.581Z,11.65
2022-10-14T09:29:30.649Z,11.68
2022-10-14T09:32:08.257Z,11.72
2022-10-14T09:34:37.062Z,11.77
2022-10-14T09:37:32.465Z,11.83
2022-10-14T09:40:01.392Z,11.88
2022-10-14T09:43:09.744Z,11.90
2022-10-14T09:46:02.137Z,11.94
2022-10-14T09:48:49.019Z,11.96
2022-10-14T09:51:42.126Z,11.97
2022-10-14T09:54:20.732Z,11.96
2022-10-14T09:56:49.486Z,11.95
2022-10-14T09:59:20.410Z,11.95
2022-10-14T10:01:57.666Z,11.95
2022-10-14T10:04:30.246Z,11.97
2022-10-14T10:06:57.260Z,11.98
2022-10-14T10:09:24.168Z,11.97
2022-10-14T10:11:51.037Z,11.98
2022-10-14T10:14:20.882Z,11.98
2022-10-14T10:16:47.777Z,11.99
2022-10-14T10:19:28.672Z,11.99
2022-10-14T10:21:56.184Z,11.99
2022-10-14T10:24:26.085Z,11.98
2022-10-14T10:26:55.445Z,11.98
2022-10-14T10:29:29.520Z,11.96
2022-10-14T10:32:18.828Z,11.94
2022-10-14T10:35:11.387Z,11.94
2022-10-14T10:37:48.658Z,11.97
2022-10-14T10:40:27.984Z,12.02
2022-10-14T10:42:54.671Z,12.07
2022-10-14T10:45:51.831Z,12.10
2022-10-14T10:48:24.626Z,12.13
2022-10-14T10:51:02.522Z,12.15
2022-10-14T10:53:42.713Z,12.17
2022-10-14T10:56:18.434Z,12.20
2022-10-14T10:59:25.405Z,12.23
2022-10-14T11:02:17.121Z,12.24
2022-10-14T11:04:50.724Z,12.24
2022-10-14T11:07:51.978Z,12.28
2022-10-14T11:10:43.620Z,12.30
2022-10-14T11:13:23.331Z,12.28
2022-10-14T11:15:55.143Z,12.23
2022-10-14T11:18:31.858Z,12.23
2022-10-14T11:21:24.820Z,12.22
2022-10-14T11:24:19.388Z,12.20
2022-10-14T11:27:35.716Z,12.18
2022-10-14T11:30:18.655Z,12.19
2022-10-14T11:32:52.724Z,12.19
2022-10-14T11:35:23.345Z,12.19
2022-10-14T11:38:25.871Z,12.20
2022-10-14T11:41:22.548Z,12.20
2022-10-14T11:44:13.853Z,12.19
2022-10-14T11:46:43.255Z,12.17
2022-10-14T11:49:17.681Z,12.16
2022-10-14T11:51:50.738Z,12.16
2022-10-14T11:54:22.895Z,12.15
2022-10-14T11:57:01.447Z,12.15
2022-10-14T11:59:31.285Z,12.17
2022-10-14T12:02:17.698Z,12.19
2022-10-14T12:04:45.271Z,12.21
2022-10-14T12:07:19.991Z,12.20
2022-10-14T12:09:54.646Z,12.20
2022-10-14T12:12:26.329Z,12.20
2022-10-14T12:14:58.929Z,12.20
2022-10-14T12:17:31.399Z,12.20
2022-10-14T12:19:58.159Z,12.20
2022-10-14T12:22:26.210Z,12.21
2022-10-14T12:24:54.331Z,12.22
2022-10-14T12:27:22.473Z,12.21
2022-10-14T12:29:50.202Z,12.21
2022-10-14T12:32:16.904Z,12.22
2022-10-14T12:34:43.613Z,12.24
2022-10-14T12:37:31.627Z,12.26
2022-10-14T12:40:07.892Z,12.28
2022-10-14T12:42:44.100Z,12.30
2022-10-14T12:45:18.596Z,12.34
2022-10-14T12:47:45.265Z,12.35
2022-10-14T12:50:15.951Z,12.37
2022-10-14T12:52:46.283Z,12.37
2022-10-14T12:55:16.853Z,12.36
2022-10-14T12:57:43.569Z,12.37
2022-10-14T13:00:13.728Z,12.37
2022-10-14T13:02:44.726Z,12.36
2022-10-14T13:05:34.835Z,12.34
2022-10-14T13:08:28.453Z,12.34
2022-10-14T13:10:55.160Z,12.32
2022-10-14T13:13:51.560Z,12.32
2022-10-14T13:16:21.254Z,12.31
2022-10-14T13:18:49.187Z,12.30
2022-10-14T13:21:31.213Z,12.30
2022-10-14T13:24:02.378Z,12.30
2022-10-14T13:26:37.965Z,12.30
2022-10-14T13:29:17.783Z,12.31
2022-10-14T13:31:53.705Z,12.32
2022-10-14T13:34:33.172Z,12.33
2022-10-14T13:37:44.811Z,12.33
2022-10-14T13:40:36.171Z,12.33
2022-10-14T13:43:07.422Z,12.31
2022-10-14T13:45:39.635Z,12.31
2022-10-14T13:48:14.213Z,12.28
2022-10-14T13:50:41.037Z,12.29
2022-10-14T13:53:15.363Z,12.27
2022-10-14T13:55:51.558Z,12.24
2022-10-14T13:58:24.603Z,12.22
2022-10-14T14:01:00.395Z,12.20
2022-10-14T14:03:43.784Z,12.17
2022-10-14T14:06:14.713Z,12.12
2022-10-14T14:08:46.762Z,12.08
2022-10-14T14:11:27.891Z,12.05
2022-10-14T14:14:52.970Z,12.00
2022-10-14T14:18:22.501Z,11.94
2022-10-14T14:21:32.676Z,11.89
2022-10-14T14:25:00.540Z,11.85
2022-10-14T14:27:30.475Z,11.81
2022-10-14T14:29:57.140Z,11.78
2022-10-14T14:32:28.730Z,11.75
2022-10-14T14:34:55.395Z,11.71
2022-10-14T14:37:47.817Z,11.66
2022-10-14T14:40:25.879Z,11.61
2022-10-14T14:42:59.324Z,11.55
2022-10-14T14:45:30.444Z,11.47
2022-10-14T14:47:58.092Z,11.40
2022-10-14T14:50:30.906Z,11.32
2022-10-14T14:53:02.158Z,11.23
2022-10-14T14:55:44.730Z,11.16
2022-10-14T14:58:25.984Z,11.08
2022-10-14T15:00:54.803Z,11.00
2022-10-14T15:03:30.753Z,10.92
2022-10-14T15:06:00.158Z,10.84
2022-10-14T15:08:36.019Z,10.79
2022-10-14T15:11:02.930Z,10.72
2022-10-14T15:13:38.689Z,10.65
2022-10-14T15:16:06.003Z,10.56
2022-10-14T15:18:32.770Z,10.44
2022-10-14T15:21:08.553Z,10.35
2022-10-14T15:23:38.085Z,10.25
2022-10-14T15:26:21.002Z,10.20
2022-10-14T15:29:06.146Z,10.14
2022-10-14T15:31:36.331Z,10.10
2022-10-14T15:34:04.652Z,10.08
2022-10-14T15:36:32.949Z,10.06
2022-10-14T15:39:02.764Z,10.03
2022-10-14T15:41:35.576Z,10.00
2022-10-14T15:44:02.160Z,9.97
2022-10-14T15:46:47.773Z,9.89
2022-10-14T15:49:15.968Z,9.80
2022-10-14T15:51:42.646Z,9.72
2022-10-14T15:54:11.132Z,9.67
2022-10-14T15:56:39.266Z,9.67
2022-10-14T15:59:06.127Z,9.67
2022-10-14T16:01:34.535Z,9.65
2022-10-14T16:04:01.443Z,9.59
2022-10-14T16:06:29.519Z,9.52
2022-10-14T16:08:56.733Z,9.43
2022-10-14T16:11:27.478Z,9.35
2022-10-14T16:13:54.175Z,9.29
2022-10-14T16:16:24.243Z,9.23
2022-10-14T16:18:51.695Z,9.19
2022-10-14T16:21:18.374Z,9.16
2022-10-14T16:23:45.043Z,9.12
2022-10-14T16:26:13.792Z,9.08
2022-10-14T16:28:40.560Z,9.02
2022-10-14T16:31:09.203Z,8.95
2022-10-14T16:33:36.959Z,8.89
2022-10-14T16:36:07.037Z,8.86
2022-10-14T16:38:33.909Z,8.87
2022-10-14T16:41:01.392Z,8.88
2022-10-14T16:43:28.601Z,8.88
2022-10-14T16:45:59.731Z,8.88
2022-10-14T16:48:27.946Z,8.87
2022-10-14T16:50:55.366Z,8.77
2022-10-14T16:53:40.642Z,8.75
2022-10-14T16:56:36.823Z,8.68
2022-10-14T16:59:03.813Z,8.60
2022-10-14T17:01:30.700Z,8.56
2022-10-14T17:03:57.564Z,8.54
2022-10-14T17:06:24.589Z,8.52
2022-10-14T17:08:51.448Z,8.48
2022-10-14T17:11:18.281Z,8.40
2022-10-14T17:13:45.070Z,8.36
2022-10-14T17:16:11.806Z,8.30
2022-10-14T17:18:38.772Z,8.25
2022-10-14T17:21:07.115Z,8.20
2022-10-14T17:23:37.595Z,8.15
2022-10-14T17:26:05.326Z,8.14
2022-10-14T17:28:32.308Z,8.11
2022-10-14T17:30:59.257Z,8.12
2022-10-14T17:35:57.551Z,8.11
2022-10-14T17:38:25.346Z,8.07
2022-10-14T17:40:52.234Z,8.05
2022-10-14T17:43:20.488Z,8.01
2022-10-14T17:45:47.236Z,7.98
2022-10-14T17:48:16.928Z,7.97
2022-10-14T17:50:47.637Z,7.96
2022-10-14T17:53:14.346Z,7.94
2022-10-14T17:55:41.024Z,7.93
2022-10-14T17:58:07.703Z,7.95
2022-10-14T18:00:34.459Z,7.99
2022-10-14T18:03:01.173Z,7.99
2022-10-14T18:05:27.802Z,8.04
2022-10-14T18:07:55.581Z,8.10
2022-10-14T18:10:23.837Z,8.13
2022-10-14T18:12:50.657Z,8.18
2022-10-14T18:15:17.375Z,8.21
2022-10-14T18:17:44.036Z,8.25
2022-10-14T18:20:10.838Z,8.27
2022-10-14T18:22:37.582Z,8.28
2022-10-14T18:25:05.186Z,8.30
2022-10-14T18:27:32.218Z,8.30
2022-10-14T18:29:58.977Z,8.31
2022-10-14T18:32:25.977Z,8.30
2022-10-14T18:34:52.956Z,8.26
2022-10-14T18:37:19.729Z,8.22
2022-10-14T18:39:49.342Z,8.17
2022-10-14T18:42:18.525Z,8.15
2022-10-14T18:44:47.632Z,8.12
2022-10-14T18:47:14.391Z,8.11
2022-10-14T18:49:41.031Z,8.09
2022-10-14T18:52:08.695Z,8.08
2022-10-14T18:54:35.820Z,8.08
2022-10-14T18:57:02.715Z,8.08
2022-10-14T18:59:29.496Z,8.09
2022-10-14T19:01:56.247Z,8.10
2022-10-14T19:04:24.652Z,8.11
2022-10-14T19:06:51.481Z,8.13
2022-10-14T19:09:19.487Z,8.12
2022-10-14T19:11:47.776Z,8.16
2022-10-14T19:14:14.679Z,8.16
2022-10-14T19:16:41.678Z,8.17
2022-10-14T19:19:14.237Z,8.18
2022-10-14T19:21:41.119Z,8.17
2022-10-14T19:24:08.401Z,8.17
2022-10-14T19:26:36.019Z,8.16
2022-10-14T19:29:06.393Z,8.15
2022-10-14T19:31:35.856Z,8.15
2022-10-14T19:34:03.166Z,8.15
2022-10-14T19:36:29.934Z,8.14
2022-10-14T19:39:00.141Z,8.11
2022-10-14T19:41:31.208Z,8.10
2022-10-14T19:43:58.494Z,8.09
2022-10-14T19:46:27.688Z,8.06
2022-10-14T19:48:59.084Z,7.99
2022-10-14T19:51:26.134Z,7.96
2022-10-14T19:53:57.179Z,7.95
2022-10-14T19:56:24.830Z,7.95
2022-10-14T19:58:53.489Z,7.95
2022-10-14T20:01:21.188Z,7.93
2022-10-14T20:03:48.011Z,7.92
2022-10-14T20:06:14.745Z,7.91
2022-10-14T20:08:41.980Z,7.92
2022-10-14T20:11:10.584Z,7.93
2022-10-14T20:13:40.383Z,7.93
2022-10-14T20:16:08.463Z,7.92
2022-10-14T20:18:35.357Z,7.90
2022-10-14T20:21:02.804Z,7.89
2022-10-14T20:23:29.900Z,7.87
2022-10-14T20:26:03.287Z,7.88
2022-10-14T20:28:30.301Z,7.88
2022-10-14T20:30:57.571Z,7.87
2022-10-14T20:33:24.842Z,7.86
2022-10-14T20:36:04.889Z,7.81
2022-10-14T20:38:31.708Z,7.76
2022-10-14T20:41:08.563Z,7.70
2022-10-14T20:43:35.529Z,7.63
2022-10-14T20:46:02.277Z,7.56
2022-10-14T20:48:29.008Z,7.46
2022-10-14T20:50:55.645Z,7.35
2022-10-14T20:53:23.260Z,7.23
2022-10-14T20:55:50.018Z,7.10
2022-10-14T20:58:18.413Z,6.98
2022-10-14T21:00:45.422Z,6.90
2022-10-14T21:03:12.172Z,6.83
2022-10-14T21:05:38.826Z,6.78
2022-10-14T21:08:05.694Z,6.73
2022-10-14T21:10:32.478Z,6.71
2022-10-14T21:12:59.181Z,6.69
2022-10-14T21:15:26.963Z,6.69
2022-10-14T21:17:53.752Z,6.70
2022-10-14T21:20:20.388Z,6.70
2022-10-14T21:22:47.274Z,6.75
2022-10-14T21:25:14.066Z,6.78
2022-10-14T21:27:40.857Z,6.82
2022-10-14T21:30:07.883Z,6.81
2022-10-14T21:32:34.612Z,6.87
2022-10-14T21:35:01.301Z,6.88
2022-10-14T21:37:28.116Z,6.88
2022-10-14T21:39:54.777Z,6.86
2022-10-14T21:42:21.735Z,6.81
2022-10-14T21:44:48.675Z,6.75
2022-10-14T21:47:15.346Z,6.69
2022-10-14T21:49:42.232Z,6.62
2022-10-14T21:52:09.270Z,6.57
2022-10-14T21:54:35.968Z,6.54
2022-10-14T21:57:02.647Z,6.54
2022-10-14T21:59:29.378Z,6.54
2022-10-14T22:01:58.898Z,6.55
2022-10-14T22:04:28.951Z,6.56
2022-10-14T22:06:55.673Z,6.59
2022-10-14T22:09:22.350Z,6.64
2022-10-14T22:11:49.098Z,6.67
2022-10-14T22:14:17.518Z,6.74
2022-10-14T22:16:45.306Z,6.80
2022-10-14T22:19:12.348Z,6.85
2022-10-14T22:21:40.233Z,6.91
2022-10-14T22:26:34.931Z,7.01
2022-10-14T22:29:02.957Z,7.06
2022-10-14T22:31:29.811Z,7.10
2022-10-14T22:33:56.514Z,7.13
2022-10-14T22:36:24.490Z,7.14
2022-10-14T22:38:52.316Z,7.15
2022-10-14T22:41:19.547Z,7.16
2022-10-14T22:43:47.280Z,7.18
2022-10-14T22:46:14.229Z,7.21
2022-10-14T22:48:40.919Z,7.23
2022-10-14T22:51:11.297Z,7.25
2022-10-14T22:53:38.675Z,7.27
2022-10-14T22:56:07.854Z,7.24
2022-10-14T22:58:34.725Z,7.30
2022-10-14T23:01:08.967Z,7.30
2022-10-14T23:03:36.251Z,7.32
2022-10-14T23:06:04.490Z,7.33
2022-10-14T23:08:31.296Z,7.33
2022-10-14T23:10:58.236Z,7.33
2022-10-14T23:13:25.348Z,7.34
2022-10-14T23:15:59.029Z,7.36
2022-10-14T23:18:26.670Z,7.37
2022-10-14T23:20:53.693Z,7.38
2022-10-14T23:23:20.397Z,7.39
2022-10-14T23:25:47.159Z,7.40
2022-10-14T23:28:13.852Z,7.42
2022-10-14T23:30:40.644Z,7.45
2022-10-14T23:33:10.765Z,7.49
2022-10-14T23:35:38.766Z,7.48
2022-10-14T23:38:05.509Z,7.54
2022-10-14T23:40:32.221Z,7.59
2022-10-14T23:42:58.904Z,7.63
2022-10-14T23:45:25.582Z,7.65
2022-10-14T23:47:52.224Z,7.67
2022-10-14T23:50:18.898Z,7.68
2022-10-14T23:52:46.007Z,7.67
2022-10-14T23:55:13.441Z,7.67
2022-10-14T23:57:40.500Z,7.66
